Time;durP1;ratioP1;P1;durP2;ratioP2;P2;SDS_P1;SDS_P2;PMS_P1;PMS_P2;Temp;Humidity;BMP_temperature;BMP_pressure;BME280_temperature;BME280_humidity;BME280_pressure;Samples;Min_cycle;Max_cycle;Signal;HPM_P1;HPM_P2
2021/12/25 00:01:21;;;;;;;9.03;6.67;;;11.60;99.90;;;;;;5032743;28;20744;-59
2021/12/25 00:03:50;;;;;;;9.67;6.43;;;11.60;99.90;;;;;;5032684;28;20206;-59
2021/12/25 00:06:17;;;;;;;9.00;6.93;;;11.70;99.90;;;;;;5032454;28;20250;-59
2021/12/25 00:08:44;;;;;;;8.13;6.93;;;11.60;99.90;;;;;;5032638;28;20241;-59
2021/12/25 00:11:11;;;;;;;8.10;6.37;;;11.60;99.90;;;;;;5032533;28;20210;-60
2021/12/25 00:13:38;;;;;;;7.00;6.30;;;11.60;99.90;;;;;;5032245;28;20701;-59
2021/12/25 00:16:05;;;;;;;12.43;10.40;;;11.70;99.90;;;;;;5032578;28;20202;-60
2021/12/25 00:18:34;;;;;;;10.00;7.90;;;11.70;99.90;;;;;;5032055;28;20202;-60
2021/12/25 00:21:01;;;;;;;8.00;6.50;;;11.80;99.90;;;;;;5032342;28;20605;-60
2021/12/25 00:23:28;;;;;;;8.03;6.67;;;11.80;99.90;;;;;;5032343;28;20202;-60
2021/12/25 00:25:59;;;;;;;8.10;6.60;;;11.80;99.90;;;;;;5031816;28;20276;-59
2021/12/25 00:28:49;;;;;;;6.97;6.23;;;11.80;99.90;;;;;;5031982;28;20217;-58
2021/12/25 00:31:29;;;;;;;7.73;6.47;;;11.80;99.90;;;;;;5032357;28;20202;-59
2021/12/25 00:33:59;;;;;;;7.60;6.80;;;11.80;99.90;;;;;;5032377;28;20202;-59
2021/12/25 00:36:26;;;;;;;11.67;7.17;;;11.80;99.90;;;;;;5031997;28;20209;-59
2021/12/25 00:38:55;;;;;;;8.23;6.60;;;11.80;99.90;;;;;;5031676;28;20729;-59
2021/12/25 00:41:24;;;;;;;7.90;7.03;;;11.90;99.90;;;;;;5032412;28;20689;-59
2021/12/25 00:43:52;;;;;;;9.33;7.10;;;11.90;99.90;;;;;;5031959;28;20686;-58
2021/12/25 00:46:18;;;;;;;8.83;7.20;;;11.90;99.90;;;;;;5031797;28;20572;-59
2021/12/25 00:48:45;;;;;;;9.47;8.43;;;11.90;99.90;;;;;;5031720;28;20210;-59
2021/12/25 00:51:13;;;;;;;9.40;7.13;;;11.80;99.90;;;;;;5031611;28;20214;-59
2021/12/25 00:53:40;;;;;;;9.77;8.17;;;11.70;99.90;;;;;;5032220;28;20206;-59
2021/12/25 00:56:07;;;;;;;8.33;7.53;;;11.60;99.90;;;;;;5031749;28;20209;-59
2021/12/25 00:58:33;;;;;;;8.97;7.53;;;11.60;99.90;;;;;;5031942;28;20210;-58
2021/12/25 01:01:00;;;;;;;9.53;7.97;;;11.50;99.90;;;;;;5031552;28;20752;-59
2021/12/25 01:03:27;;;;;;;11.63;9.90;;;11.40;99.90;;;;;;5032554;28;20202;-58
2021/12/25 01:05:54;;;;;;;8.40;7.53;;;11.40;99.90;;;;;;5031363;28;20613;-58
2021/12/25 01:08:22;;;;;;;8.20;7.40;;;11.40;99.90;;;;;;5031840;28;20214;-58
2021/12/25 01:10:49;;;;;;;9.80;8.60;;;11.30;99.90;;;;;;5032212;28;20234;-63
2021/12/25 01:13:22;;;;;;;8.37;6.90;;;11.30;99.90;;;;;;5031934;28;20203;-61
2021/12/25 01:16:00;;;;;;;9.87;7.63;;;11.40;99.90;;;;;;5032223;28;20580;-63
2021/12/25 01:24:26;;;;;;;9.90;8.03;;;11.40;99.90;;;;;;5090163;28;20545;-63
2021/12/25 01:27:16;;;;;;;9.47;7.47;;;11.40;99.90;;;;;;5090875;28;20668;-62
2021/12/25 01:29:49;;;;;;;10.53;8.50;;;11.30;99.90;;;;;;5090044;28;20216;-63
2021/12/25 01:32:44;;;;;;;10.70;8.77;;;11.10;99.90;;;;;;5089718;28;20626;-61
2021/12/25 01:38:20;;;;;;;10.73;9.00;;;11.00;99.90;;;;;;5084118;28;20201;-62
2021/12/25 01:40:57;;;;;;;9.73;8.60;;;11.00;99.90;;;;;;5090418;28;20232;-63
2021/12/25 01:48:52;;;;;;;11.53;9.53;;;11.00;99.90;;;;;;5089350;28;20265;-63
2021/12/25 01:51:19;;;;;;;12.00;10.00;;;11.00;99.90;;;;;;5089553;28;20208;-63
2021/12/25 01:53:46;;;;;;;12.97;10.83;;;11.00;99.90;;;;;;5089547;28;20200;-63
2021/12/25 01:56:15;;;;;;;11.17;9.33;;;11.00;99.90;;;;;;5089633;28;20200;-62
2021/12/25 01:58:42;;;;;;;12.23;10.07;;;11.00;99.90;;;;;;5089339;28;20213;-63
2021/12/25 02:01:10;;;;;;;13.23;10.07;;;11.00;99.90;;;;;;5089312;28;20672;-62
2021/12/25 02:03:38;;;;;;;10.17;8.93;;;11.00;99.90;;;;;;5089271;28;20235;-62
2021/12/25 02:06:08;;;;;;;12.80;9.27;;;11.00;99.90;;;;;;5089257;28;20207;-62
2021/12/25 02:08:35;;;;;;;9.90;8.53;;;11.00;99.90;;;;;;5089225;28;20215;-63
2021/12/25 02:11:03;;;;;;;13.23;10.17;;;10.90;99.90;;;;;;5089698;28;20208;-63
2021/12/25 02:13:31;;;;;;;9.37;8.37;;;10.80;99.90;;;;;;5089386;28;20262;-62
2021/12/25 02:15:59;;;;;;;11.50;9.03;;;10.60;99.90;;;;;;5089090;28;20207;-63
2021/12/25 02:18:31;;;;;;;12.00;9.00;;;10.60;99.90;;;;;;5088844;28;20295;-63
2021/12/25 02:21:07;;;;;;;9.07;8.07;;;10.70;99.90;;;;;;5089430;28;20299;-63
2021/12/25 02:23:36;;;;;;;9.17;7.90;;;10.70;99.90;;;;;;5089251;28;20224;-63
2021/12/25 02:26:03;;;;;;;8.87;7.93;;;10.70;99.90;;;;;;5089717;28;20204;-63
2021/12/25 02:28:31;;;;;;;9.60;7.63;;;10.50;99.90;;;;;;5088806;28;20220;-62
2021/12/25 02:31:02;;;;;;;10.53;8.00;;;10.30;99.90;;;;;;5088895;28;20205;-63
2021/12/25 02:33:29;;;;;;;9.63;8.53;;;10.20;99.90;;;;;;5086979;28;20529;-63
2021/12/25 02:35:57;;;;;;;10.43;8.20;;;10.30;99.90;;;;;;5075343;28;20208;-63
2021/12/25 02:38:26;;;;;;;9.77;8.53;;;10.30;99.90;;;;;;5074984;28;20212;-63
2021/12/25 02:40:53;;;;;;;10.00;8.17;;;10.50;99.90;;;;;;5076211;28;20204;-63
2021/12/25 02:43:20;;;;;;;11.03;8.33;;;10.60;99.90;;;;;;5075040;28;20244;-63
2021/12/25 02:45:47;;;;;;;11.80;8.83;;;10.70;99.90;;;;;;5074937;28;20208;-63
2021/12/25 02:48:17;;;;;;;10.97;8.90;;;10.80;99.90;;;;;;5075095;28;20209;-63
2021/12/25 02:50:44;;;;;;;10.30;8.80;;;10.90;99.90;;;;;;5075334;28;20231;-63
2021/12/25 02:53:12;;;;;;;12.63;8.93;;;10.90;99.90;;;;;;5075024;28;20201;-63
2021/12/25 02:55:42;;;;;;;11.03;8.90;;;10.90;99.90;;;;;;5074850;28;20254;-63
2021/12/25 02:58:10;;;;;;;12.33;9.37;;;11.00;99.90;;;;;;5074398;28;20593;-63
2021/12/25 03:00:39;;;;;;;10.27;9.17;;;11.00;99.90;;;;;;5074846;28;20233;-63
2021/12/25 03:03:07;;;;;;;12.10;8.87;;;11.00;99.90;;;;;;5075162;28;20228;-62
2021/12/25 03:05:35;;;;;;;11.07;9.43;;;11.00;99.90;;;;;;5075198;28;20630;-62
2021/12/25 03:08:02;;;;;;;10.43;9.30;;;11.00;99.90;;;;;;5074561;28;20628;-63
2021/12/25 03:10:31;;;;;;;10.27;9.00;;;11.00;99.90;;;;;;5075371;28;20236;-63
2021/12/25 03:13:15;;;;;;;10.83;9.03;;;11.00;99.90;;;;;;5074755;28;20201;-63
2021/12/25 03:15:46;;;;;;;10.50;8.53;;;10.90;99.90;;;;;;5074791;28;20889;-63
2021/12/25 03:18:13;;;;;;;10.20;8.27;;;10.80;99.90;;;;;;5074490;28;20680;-63
2021/12/25 03:20:44;;;;;;;11.90;9.00;;;10.60;99.90;;;;;;5074520;28;20237;-63
2021/12/25 03:23:12;;;;;;;13.00;10.30;;;10.60;99.90;;;;;;5074513;28;20646;-63
2021/12/25 03:25:39;;;;;;;10.63;8.63;;;10.60;99.90;;;;;;5074522;28;20262;-63
2021/12/25 03:28:07;;;;;;;13.53;9.53;;;10.60;99.90;;;;;;5075691;28;20230;-63
2021/12/25 03:30:37;;;;;;;10.73;8.83;;;10.60;99.90;;;;;;5078737;28;20231;-63
2021/12/25 03:33:04;;;;;;;10.27;8.47;;;10.60;99.90;;;;;;5074177;28;20205;-62
2021/12/25 03:35:31;;;;;;;9.80;8.27;;;10.60;99.90;;;;;;5073771;28;20224;-63
2021/12/25 03:37:58;;;;;;;9.80;7.60;;;10.50;99.90;;;;;;5073379;28;20212;-63
2021/12/25 03:40:25;;;;;;;8.37;7.10;;;10.40;99.90;;;;;;5074323;28;20221;-63
2021/12/25 03:42:51;;;;;;;10.93;7.00;;;10.10;99.90;;;;;;5073703;28;20728;-63
2021/12/25 03:45:20;;;;;;;9.43;7.97;;;10.00;99.90;;;;;;5072942;28;20255;-63
2021/12/25 03:47:49;;;;;;;9.30;7.37;;;9.90;99.90;;;;;;5072966;28;20647;-64
2021/12/25 03:53:23;;;;;;;10.50;8.07;;;9.90;99.90;;;;;;5073510;28;20200;-63
2021/12/25 03:58:34;;;;;;;8.70;7.47;;;10.40;99.90;;;;;;5073331;28;20207;-63
2021/12/25 04:01:23;;;;;;;9.97;8.17;;;10.50;99.90;;;;;;5074312;28;20204;-64
2021/12/25 04:04:04;;;;;;;9.83;8.00;;;10.50;99.90;;;;;;5073644;28;20269;-63
2021/12/25 04:06:31;;;;;;;10.33;8.07;;;10.60;99.90;;;;;;5073277;28;20270;-63
2021/12/25 04:08:58;;;;;;;8.00;7.20;;;10.70;99.90;;;;;;5074168;28;20228;-63
2021/12/25 04:11:28;;;;;;;8.87;7.63;;;10.50;99.90;;;;;;5076865;28;20213;-63
2021/12/25 04:13:56;;;;;;;8.47;7.50;;;10.10;99.90;;;;;;5074865;28;20295;-63
2021/12/25 04:16:24;;;;;;;8.97;8.07;;;9.90;99.90;;;;;;5073602;28;20216;-63
2021/12/25 04:18:51;;;;;;;10.77;8.20;;;9.90;99.90;;;;;;5072852;28;20708;-63
2021/12/25 04:21:17;;;;;;;10.27;8.47;;;10.10;99.90;;;;;;5073141;28;20217;-63
2021/12/25 04:23:45;;;;;;;9.10;7.87;;;10.30;99.90;;;;;;5072787;28;20291;-63
2021/12/25 04:26:13;;;;;;;9.20;7.53;;;10.30;99.90;;;;;;5073021;28;20299;-63
2021/12/25 04:28:45;;;;;;;8.93;8.00;;;10.10;99.90;;;;;;5072696;28;20580;-63
2021/12/25 04:31:29;;;;;;;8.33;7.43;;;10.00;99.90;;;;;;5073133;28;20236;-62
2021/12/25 05:04:15;;;;;;;10.40;8.20;;;10.60;99.90;;;;;;5072428;28;20746;-63
2021/12/25 05:06:43;;;;;;;9.30;7.73;;;10.60;99.90;;;;;;5072498;28;20585;-63
2021/12/25 05:09:09;;;;;;;10.00;7.93;;;10.60;99.90;;;;;;5072110;28;20229;-62
2021/12/25 05:11:36;;;;;;;11.53;8.87;;;10.60;99.90;;;;;;5072966;28;20208;-63
2021/12/25 05:14:03;;;;;;;8.80;7.90;;;10.50;99.90;;;;;;5072648;28;20622;-63
2021/12/25 05:16:29;;;;;;;9.13;8.13;;;10.40;99.90;;;;;;5072642;28;20626;-63
2021/12/25 05:18:56;;;;;;;8.73;7.87;;;10.30;99.90;;;;;;5072064;28;20236;-63
2021/12/25 05:21:23;;;;;;;9.13;8.13;;;10.30;99.90;;;;;;5072451;28;20208;-63
2021/12/25 05:23:51;;;;;;;8.67;7.10;;;10.40;99.90;;;;;;5072124;28;20229;-63
2021/12/25 05:26:18;;;;;;;7.60;6.73;;;10.40;99.90;;;;;;5072591;28;20207;-63
2021/12/25 05:28:56;;;;;;;10.17;8.13;;;10.40;99.90;;;;;;5072131;28;20216;-63
2021/12/25 05:31:23;;;;;;;9.37;7.30;;;10.50;99.90;;;;;;5072493;28;20206;-63
2021/12/25 05:33:49;;;;;;;8.63;7.20;;;10.50;99.90;;;;;;5072874;28;20204;-63
2021/12/25 05:36:16;;;;;;;8.57;6.70;;;10.50;99.90;;;;;;5072419;28;20214;-63
2021/12/25 05:38:43;;;;;;;6.93;6.23;;;10.50;99.90;;;;;;5072344;28;20600;-63
2021/12/25 05:41:11;;;;;;;7.13;6.43;;;10.50;99.90;;;;;;5073597;28;20208;-63
2021/12/25 05:43:38;;;;;;;7.70;5.83;;;10.50;99.90;;;;;;5072459;28;20273;-63
2021/12/25 05:46:05;;;;;;;6.83;5.63;;;10.50;99.90;;;;;;5072490;28;20211;-63
2021/12/25 05:48:35;;;;;;;6.33;5.73;;;10.50;99.90;;;;;;5072031;28;20219;-63
2021/12/25 05:51:02;;;;;;;5.80;4.73;;;10.40;99.90;;;;;;5072355;28;20205;-62
2021/12/25 05:53:29;;;;;;;4.53;4.13;;;10.40;99.90;;;;;;5072473;28;20215;-62
2021/12/25 05:55:55;;;;;;;5.27;4.00;;;10.40;99.90;;;;;;5072501;28;20209;-63
2021/12/25 05:58:23;;;;;;;4.40;3.90;;;10.40;99.90;;;;;;5072487;28;20209;-63
2021/12/25 06:00:52;;;;;;;5.37;3.93;;;10.50;99.90;;;;;;5072277;28;20229;-63
2021/12/25 06:03:18;;;;;;;4.10;3.40;;;10.60;99.90;;;;;;5072427;28;20229;-62
2021/12/25 06:05:47;;;;;;;3.87;2.93;;;10.70;99.90;;;;;;5072258;28;20645;-63
2021/12/25 06:08:15;;;;;;;2.80;2.50;;;10.70;99.90;;;;;;5072216;28;20221;-62
2021/12/25 06:10:42;;;;;;;3.30;2.53;;;10.70;99.90;;;;;;5076017;28;20278;-63
2021/12/25 06:13:11;;;;;;;3.50;2.73;;;10.80;99.90;;;;;;5075938;28;20205;-63
2021/12/25 06:15:39;;;;;;;6.77;2.37;;;10.80;99.90;;;;;;5075723;28;20209;-63
2021/12/25 06:18:08;;;;;;;2.83;2.30;;;10.90;99.90;;;;;;5075180;28;20209;-63
2021/12/25 06:20:35;;;;;;;3.53;2.63;;;10.80;99.90;;;;;;5075458;28;20274;-63
2021/12/25 06:23:02;;;;;;;4.33;2.90;;;10.70;99.90;;;;;;5075348;28;20239;-63
2021/12/25 06:25:29;;;;;;;3.37;2.80;;;10.70;99.90;;;;;;5075647;28;20197;-63
2021/12/25 06:27:56;;;;;;;2.80;2.30;;;10.80;99.90;;;;;;5075229;28;20373;-63
2021/12/25 06:30:23;;;;;;;2.77;2.47;;;10.90;99.90;;;;;;5075342;28;20282;-63
2021/12/25 06:32:51;;;;;;;2.83;2.53;;;10.90;99.90;;;;;;5075224;28;20212;-62
2021/12/25 06:35:18;;;;;;;3.50;2.50;;;10.90;99.90;;;;;;5075569;28;20201;-63
2021/12/25 06:37:45;;;;;;;3.20;2.60;;;11.00;99.90;;;;;;5075804;28;20619;-65
2021/12/25 06:40:17;;;;;;;4.10;3.20;;;11.00;99.90;;;;;;5076397;28;20288;-65
2021/12/25 06:42:43;;;;;;;5.10;3.17;;;11.00;99.90;;;;;;5075873;28;20209;-64
2021/12/25 06:45:10;;;;;;;3.23;2.50;;;11.10;99.90;;;;;;5075298;28;20228;-64
2021/12/25 06:47:37;;;;;;;2.97;2.47;;;11.00;99.90;;;;;;5074957;28;20205;-57
2021/12/25 06:50:07;;;;;;;3.63;2.70;;;10.90;99.90;;;;;;5074739;28;20225;-57
2021/12/25 06:52:35;;;;;;;3.87;2.60;;;10.90;99.90;;;;;;5074818;28;20209;-57
2021/12/25 06:55:02;;;;;;;3.70;3.00;;;10.90;99.90;;;;;;5074602;28;20205;-58
2021/12/25 06:57:29;;;;;;;4.60;3.13;;;10.90;99.90;;;;;;5074856;28;20665;-57
2021/12/25 06:59:55;;;;;;;4.00;3.40;;;11.00;99.90;;;;;;5074323;28;20227;-61
2021/12/25 07:02:22;;;;;;;4.07;3.03;;;11.00;99.90;;;;;;5075007;28;20648;-58
2021/12/25 07:04:49;;;;;;;4.63;3.70;;;11.10;99.90;;;;;;5074554;28;20232;-59
2021/12/25 07:07:17;;;;;;;4.53;3.87;;;11.20;99.90;;;;;;5075336;28;20566;-58
2021/12/25 07:09:44;;;;;;;7.60;3.70;;;11.30;99.90;;;;;;5074407;28;20231;-58
2021/12/25 07:12:11;;;;;;;3.97;3.10;;;11.40;99.90;;;;;;5075621;28;20209;-58
2021/12/25 07:14:38;;;;;;;4.37;3.40;;;11.40;99.90;;;;;;5074413;28;20212;-58
2021/12/25 07:17:04;;;;;;;3.40;3.10;;;11.50;99.90;;;;;;5074530;28;20208;-58
2021/12/25 07:19:31;;;;;;;4.43;3.00;;;11.50;99.90;;;;;;5074215;28;20234;-59
2021/12/25 07:21:58;;;;;;;3.40;3.10;;;11.50;99.90;;;;;;5074478;28;20212;-58
2021/12/25 07:24:26;;;;;;;5.93;3.47;;;11.40;99.90;;;;;;5074737;28;20219;-58
2021/12/25 07:26:52;;;;;;;4.17;3.13;;;11.20;99.90;;;;;;5074363;28;20201;-58
2021/12/25 07:29:19;;;;;;;4.73;2.83;;;11.00;99.90;;;;;;5074069;28;20237;-58
2021/12/25 07:31:46;;;;;;;3.90;2.90;;;11.00;99.90;;;;;;5074081;28;20734;-59
2021/12/25 07:34:12;;;;;;;6.00;4.70;;;11.10;99.90;;;;;;5074465;28;20668;-58
2021/12/25 07:36:39;;;;;;;7.13;5.23;;;11.20;99.90;;;;;;5079928;22;20718;-58
2021/12/25 07:39:06;;;;;;;5.13;4.60;;;11.30;99.90;;;;;;5053311;28;20198;-58
2021/12/25 07:41:34;;;;;;;4.33;3.60;;;11.40;99.90;;;;;;5053475;28;20231;-58
2021/12/25 07:44:01;;;;;;;5.23;3.63;;;11.50;99.90;;;;;;5053643;28;20256;-59
2021/12/25 07:46:28;;;;;;;4.23;3.70;;;11.50;99.90;;;;;;5053507;28;20226;-58
2021/12/25 07:48:55;;;;;;;4.57;3.57;;;11.50;99.90;;;;;;5053351;28;20247;-59
2021/12/25 07:51:22;;;;;;;5.43;3.57;;;11.40;99.90;;;;;;5052775;28;20209;-60
2021/12/25 07:53:49;;;;;;;7.30;4.50;;;11.30;99.90;;;;;;5053331;28;20209;-59
2021/12/25 07:56:16;;;;;;;5.67;4.10;;;11.30;99.90;;;;;;5053425;28;20253;-59
2021/12/25 07:58:44;;;;;;;5.63;4.23;;;11.40;99.90;;;;;;5053055;28;20205;-58
2021/12/25 08:01:11;;;;;;;5.53;4.57;;;11.50;99.90;;;;;;5053452;28;20220;-59
2021/12/25 08:03:38;;;;;;;7.03;5.40;;;11.50;99.90;;;;;;5053185;28;20216;-59
2021/12/25 08:06:05;;;;;;;5.50;4.70;;;11.50;99.90;;;;;;5053102;28;20234;-59
2021/12/25 08:08:32;;;;;;;6.33;5.10;;;11.60;99.90;;;;;;5052972;28;20205;-60
2021/12/25 08:10:59;;;;;;;6.43;5.07;;;11.60;99.90;;;;;;5053974;28;20205;-59
2021/12/25 08:13:25;;;;;;;7.03;4.90;;;11.70;99.90;;;;;;5053555;28;20559;-59
2021/12/25 08:15:54;;;;;;;7.20;5.07;;;11.70;99.90;;;;;;5053169;28;20225;-59
2021/12/25 08:18:20;;;;;;;7.13;5.70;;;11.70;99.90;;;;;;5052809;28;20670;-60
2021/12/25 08:20:47;;;;;;;5.67;4.93;;;11.70;99.90;;;;;;5052997;28;20205;-61
2021/12/25 08:23:14;;;;;;;6.20;5.17;;;11.70;99.90;;;;;;5053018;28;20673;-60
2021/12/25 08:25:41;;;;;;;7.90;4.93;;;11.70;99.90;;;;;;5052785;28;20697;-59
2021/12/25 08:28:08;;;;;;;7.67;6.53;;;11.80;99.90;;;;;;5052996;28;20209;-60
2021/12/25 08:30:35;;;;;;;6.63;5.40;;;11.80;99.90;;;;;;5052709;28;20210;-59
2021/12/25 08:33:03;;;;;;;10.10;5.33;;;11.80;99.90;;;;;;5052213;28;20210;-59
2021/12/25 08:35:31;;;;;;;6.07;5.40;;;11.80;99.90;;;;;;5052412;28;20709;-60
2021/12/25 08:37:59;;;;;;;11.83;8.77;;;11.80;99.90;;;;;;5052709;28;20260;-60
2021/12/25 08:40:26;;;;;;;6.33;5.50;;;11.90;99.90;;;;;;5052162;28;20216;-59
2021/12/25 08:42:57;;;;;;;5.97;5.10;;;11.90;99.90;;;;;;5052599;28;20210;-59
2021/12/25 08:48:09;;;;;;;5.17;4.67;;;11.90;99.90;;;;;;5049121;28;20704;-59
2021/12/25 08:50:36;;;;;;;4.87;4.37;;;11.90;99.90;;;;;;5052233;28;20245;-59
2021/12/25 08:53:03;;;;;;;6.67;5.00;;;12.00;99.90;;;;;;5052540;28;20202;-59
2021/12/25 08:55:30;;;;;;;5.50;4.50;;;11.90;99.90;;;;;;5052418;28;20221;-60
2021/12/25 08:57:57;;;;;;;6.00;4.40;;;12.00;99.90;;;;;;5052253;28;20209;-56
2021/12/25 09:00:24;;;;;;;4.87;3.63;;;12.00;99.90;;;;;;5052148;28;20232;-61
2021/12/25 09:02:51;;;;;;;5.27;3.53;;;12.00;99.90;;;;;;5052215;28;20233;-60
2021/12/25 09:05:19;;;;;;;5.83;3.87;;;12.10;99.90;;;;;;5052123;28;20240;-60
2021/12/25 09:07:46;;;;;;;3.93;3.40;;;12.20;99.90;;;;;;5052037;28;20205;-60
2021/12/25 09:10:13;;;;;;;5.23;3.43;;;12.30;99.90;;;;;;5052019;28;20209;-60
2021/12/25 09:12:42;;;;;;;6.80;3.43;;;12.40;99.90;;;;;;5051994;28;20213;-60
2021/12/25 09:15:10;;;;;;;4.70;3.40;;;12.40;99.90;;;;;;5051669;28;20222;-59
2021/12/25 09:17:37;;;;;;;4.70;3.57;;;12.50;99.90;;;;;;5051682;28;20263;-60
2021/12/25 09:20:06;;;;;;;3.23;2.60;;;12.60;99.90;;;;;;5051457;28;20202;-59
2021/12/25 09:22:34;;;;;;;5.57;3.30;;;12.70;99.90;;;;;;5051775;28;20630;-61
2021/12/25 09:25:01;;;;;;;4.70;2.83;;;12.80;99.90;;;;;;5051767;28;20256;-61
2021/12/25 09:27:28;;;;;;;4.23;3.10;;;12.90;99.90;;;;;;5051915;28;20213;-60
2021/12/25 09:29:55;;;;;;;4.07;3.33;;;12.90;99.90;;;;;;5051445;28;20213;-60
2021/12/25 09:32:21;;;;;;;3.97;3.13;;;12.90;99.90;;;;;;5052022;28;20202;-60
2021/12/25 09:34:48;;;;;;;3.80;2.83;;;12.80;99.90;;;;;;5051750;28;20198;-61
2021/12/25 09:37:15;;;;;;;5.53;3.00;;;12.90;99.90;;;;;;5051758;28;20224;-61
2021/12/25 09:39:44;;;;;;;3.37;2.70;;;12.90;99.90;;;;;;5051508;28;20614;-61
2021/12/25 09:42:11;;;;;;;4.07;2.90;;;12.90;99.90;;;;;;5051738;28;20205;-61
2021/12/25 09:44:38;;;;;;;4.90;3.17;;;13.00;99.90;;;;;;5053486;28;20228;-61
2021/12/25 09:47:05;;;;;;;3.60;3.10;;;13.00;99.90;;;;;;5055974;28;20212;-61
2021/12/25 09:49:32;;;;;;;4.60;3.03;;;13.00;99.90;;;;;;5055726;28;20213;-59
2021/12/25 09:51:59;;;;;;;4.17;3.10;;;13.00;99.90;;;;;;5055893;28;20209;-59
2021/12/25 09:54:27;;;;;;;4.20;3.77;;;13.00;99.90;;;;;;5056463;28;20213;-59
2021/12/25 09:56:58;;;;;;;3.73;3.23;;;13.00;99.90;;;;;;5056094;28;20260;-60
2021/12/25 09:59:25;;;;;;;3.63;3.00;;;13.00;99.90;;;;;;5056100;28;20205;-61
2021/12/25 10:01:54;;;;;;;3.57;2.97;;;13.00;99.90;;;;;;5056582;28;20255;-60
2021/12/25 10:04:33;;;;;;;3.93;3.40;;;13.10;99.90;;;;;;5056323;28;20202;-61
2021/12/25 10:07:17;;;;;;;4.57;3.60;;;13.00;99.90;;;;;;5056439;28;20259;-61
2021/12/25 10:09:55;;;;;;;5.60;3.70;;;13.00;99.90;;;;;;5057291;28;20263;-63
2021/12/25 10:12:28;;;;;;;4.10;3.63;;;13.00;99.90;;;;;;5057434;28;20581;-68
2021/12/25 10:14:55;;;;;;;5.47;4.13;;;13.10;99.90;;;;;;5055773;28;20444;-68
2021/12/25 10:17:24;;;;;;;5.93;3.60;;;13.10;99.90;;;;;;5056444;28;20732;-59
2021/12/25 10:20:11;;;;;;;6.63;3.90;;;13.20;99.90;;;;;;5055805;28;20591;-60
2021/12/25 10:22:58;;;;;;;14.70;8.73;;;13.20;99.90;;;;;;5056514;28;20206;-60
2021/12/25 10:25:28;;;;;;;20.17;12.37;;;13.00;99.90;;;;;;5056057;28;20233;-60
2021/12/25 10:27:59;;;;;;;6.43;5.20;;;12.70;99.90;;;;;;5056297;28;20244;-61
2021/12/25 10:30:26;;;;;;;5.00;3.53;;;12.40;99.90;;;;;;5055842;28;20209;-59
2021/12/25 10:32:53;;;;;;;4.33;3.70;;;12.10;99.90;;;;;;5055487;28;20676;-58
2021/12/25 10:35:22;;;;;;;4.00;3.27;;;11.90;99.90;;;;;;5055240;28;20651;-59
2021/12/25 10:37:51;;;;;;;4.33;3.33;;;11.80;99.90;;;;;;5055564;28;20201;-59
2021/12/25 10:40:26;;;;;;;4.27;3.17;;;12.00;99.90;;;;;;5054637;28;20301;-59
2021/12/25 10:42:54;;;;;;;5.83;4.40;;;12.20;99.90;;;;;;5054889;28;20201;-60
2021/12/25 10:45:25;;;;;;;5.70;4.20;;;12.50;99.90;;;;;;5054777;28;20225;-59
2021/12/25 10:48:05;;;;;;;35.80;30.00;;;12.60;99.90;;;;;;5054920;28;20213;-59
2021/12/25 10:50:36;;;;;;;7.30;4.50;;;12.70;99.90;;;;;;5054513;28;20209;-59
2021/12/25 10:53:07;;;;;;;3.83;3.10;;;12.80;99.90;;;;;;5054448;28;20296;-59
2021/12/25 10:55:37;;;;;;;4.40;3.17;;;12.80;99.90;;;;;;5054076;28;20225;-59
2021/12/25 10:58:18;;;;;;;3.47;2.83;;;12.90;99.90;;;;;;5054796;28;20202;-59
2021/12/25 11:00:50;;;;;;;4.00;3.20;;;12.80;99.90;;;;;;5054525;28;20206;-59
2021/12/25 11:03:25;;;;;;;3.10;2.67;;;12.90;99.90;;;;;;5054577;28;20205;-59
2021/12/25 11:05:52;;;;;;;3.70;3.03;;;13.00;99.90;;;;;;5054200;28;20233;-59
2021/12/25 11:08:20;;;;;;;3.80;2.70;;;12.90;99.90;;;;;;5054328;28;20746;-59
2021/12/25 11:10:50;;;;;;;2.83;2.40;;;12.90;99.90;;;;;;5054935;28;20308;-59
2021/12/25 11:13:19;;;;;;;2.80;2.50;;;12.90;99.90;;;;;;5054284;28;20210;-59
2021/12/25 11:15:49;;;;;;;3.00;2.50;;;13.00;99.90;;;;;;5054549;28;20217;-59
2021/12/25 11:18:17;;;;;;;3.47;2.87;;;13.00;99.90;;;;;;5053457;28;20213;-61
2021/12/25 11:20:46;;;;;;;4.47;3.03;;;13.20;99.90;;;;;;5046436;28;20205;-60
2021/12/25 11:23:14;;;;;;;4.70;2.37;;;13.20;99.90;;;;;;5054379;28;20457;-59
2021/12/25 11:25:43;;;;;;;2.50;2.20;;;13.30;99.90;;;;;;5054255;28;20222;-60
2021/12/25 11:28:11;;;;;;;2.70;2.10;;;13.30;99.90;;;;;;5054003;28;20216;-59
2021/12/25 11:30:41;;;;;;;2.77;2.07;;;13.30;99.90;;;;;;5053284;28;20601;-59
2021/12/25 11:33:09;;;;;;;2.87;2.10;;;13.30;99.90;;;;;;5054062;28;20232;-59
2021/12/25 11:35:37;;;;;;;3.37;2.23;;;13.30;99.90;;;;;;5053187;28;20229;-60
2021/12/25 11:38:06;;;;;;;2.87;2.20;;;13.30;99.90;;;;;;5053828;28;20213;-59
2021/12/25 11:40:36;;;;;;;5.63;2.63;;;13.40;99.90;;;;;;5053453;28;20709;-59
2021/12/25 11:43:04;;;;;;;2.97;2.20;;;13.40;99.90;;;;;;5053344;28;20212;-58
2021/12/25 11:45:36;;;;;;;2.47;1.90;;;13.40;99.90;;;;;;5053389;28;20749;-60
2021/12/25 11:48:15;;;;;;;2.80;2.40;;;13.40;99.90;;;;;;5053645;28;20255;-59
2021/12/25 11:50:45;;;;;;;3.43;2.27;;;13.50;99.90;;;;;;5053389;28;20258;-60
2021/12/25 11:53:19;;;;;;;3.13;2.10;;;13.60;99.90;;;;;;5053263;28;20205;-59
2021/12/25 11:58:39;;;;;;;2.20;2.00;;;13.60;99.90;;;;;;5050858;28;20198;-61
2021/12/25 12:01:18;;;;;;;4.60;2.33;;;13.50;99.90;;;;;;5053483;28;20202;-58
2021/12/25 12:03:52;;;;;;;4.20;2.27;;;13.50;99.90;;;;;;5053336;28;20590;-59
2021/12/25 12:06:20;;;;;;;3.47;2.33;;;13.50;99.90;;;;;;5052222;28;20225;-59
2021/12/25 12:09:10;;;;;;;3.33;2.60;;;13.50;99.90;;;;;;5052778;28;20244;-59
2021/12/25 12:11:40;;;;;;;7.47;5.30;;;13.50;99.90;;;;;;5053091;28;20214;-59
2021/12/25 12:14:15;;;;;;;2.60;2.40;;;13.40;99.90;;;;;;5053401;28;20624;-64
2021/12/25 12:16:44;;;;;;;4.03;3.10;;;13.40;99.90;;;;;;5052686;28;20217;-59
2021/12/25 12:19:43;;;;;;;4.87;3.83;;;13.30;99.90;;;;;;5052716;28;20627;-64
2021/12/25 12:22:48;;;;;;;5.43;4.43;;;13.30;99.90;;;;;;5053331;28;20231;-64
2021/12/25 12:25:23;;;;;;;3.37;2.57;;;13.30;99.90;;;;;;5053067;28;20229;-65
2021/12/25 12:27:53;;;;;;;4.30;2.50;;;13.40;99.90;;;;;;5052890;28;20206;-58
2021/12/25 12:30:40;;;;;;;4.50;2.83;;;13.40;99.90;;;;;;5052599;28;20235;-64
2021/12/25 12:33:32;;;;;;;3.87;3.00;;;13.40;99.90;;;;;;5052587;28;20216;-64
2021/12/25 12:36:01;;;;;;;3.23;2.67;;;13.50;99.90;;;;;;5053026;28;20263;-59
2021/12/25 12:38:39;;;;;;;4.13;2.50;;;13.60;99.90;;;;;;5053157;28;20201;-61
2021/12/25 12:41:22;;;;;;;3.30;2.57;;;13.60;99.90;;;;;;5053097;28;20209;-65
2021/12/25 12:43:57;;;;;;;6.40;3.17;;;13.70;99.90;;;;;;5052927;28;20209;-60
2021/12/25 12:46:45;;;;;;;4.93;3.40;;;13.70;99.90;;;;;;5052734;28;20244;-61
2021/12/25 12:49:13;;;;;;;6.33;3.17;;;13.70;99.90;;;;;;5052848;28;20205;-61
2021/12/25 12:51:40;;;;;;;3.80;3.07;;;13.70;99.90;;;;;;5053084;28;20213;-64
2021/12/25 12:54:07;;;;;;;4.90;3.50;;;13.70;99.90;;;;;;5052996;28;20209;-63
2021/12/25 12:56:33;;;;;;;8.80;5.80;;;13.60;99.90;;;;;;5052244;28;20218;-61
2021/12/25 12:59:00;;;;;;;5.87;4.13;;;13.50;99.90;;;;;;5052303;28;20216;-64
2021/12/25 13:01:28;;;;;;;4.03;2.90;;;13.40;99.90;;;;;;5052095;28;20305;-63
2021/12/25 13:03:59;;;;;;;4.30;3.87;;;13.40;99.90;;;;;;5051637;28;20666;-61
2021/12/25 13:06:29;;;;;;;7.33;5.87;;;13.50;99.90;;;;;;5051331;28;20230;-65
2021/12/25 13:08:59;;;;;;;3.33;3.00;;;13.60;99.90;;;;;;5051348;28;20213;-65
2021/12/25 13:11:30;;;;;;;5.30;2.87;;;13.60;99.90;;;;;;5051750;28;20263;-66
2021/12/25 13:13:59;;;;;;;3.20;2.90;;;13.70;99.90;;;;;;5051792;28;20209;-64
2021/12/25 13:16:34;;;;;;;4.63;4.13;;;13.60;99.90;;;;;;5051564;28;20225;-64
2021/12/25 13:19:03;;;;;;;4.67;3.07;;;13.60;99.90;;;;;;5051056;28;20211;-55
2021/12/25 13:21:34;;;;;;;5.60;3.80;;;13.50;99.90;;;;;;5051584;28;20623;-55
2021/12/25 13:24:06;;;;;;;6.73;3.40;;;13.50;99.90;;;;;;5051490;28;20621;-56
2021/12/25 13:26:37;;;;;;;19.77;13.30;;;13.50;99.90;;;;;;5051325;28;20642;-56
2021/12/25 13:29:07;;;;;;;15.43;11.27;;;13.50;99.90;;;;;;5051380;28;20216;-55
2021/12/25 13:31:36;;;;;;;8.60;5.40;;;13.50;99.90;;;;;;5051248;28;20197;-55
2021/12/25 13:34:11;;;;;;;5.87;3.90;;;13.50;99.90;;;;;;5051660;28;20248;-62
2021/12/25 13:36:41;;;;;;;4.13;3.30;;;13.50;99.90;;;;;;5074086;22;20278;-63
2021/12/25 13:39:11;;;;;;;9.07;5.93;;;13.40;99.90;;;;;;5051650;28;20251;-62
2021/12/25 13:41:40;;;;;;;5.87;4.40;;;13.40;99.90;;;;;;5051986;28;20209;-61
2021/12/25 13:44:12;;;;;;;15.30;10.57;;;13.50;99.90;;;;;;5051253;28;20218;-59
2021/12/25 13:46:42;;;;;;;9.30;6.00;;;13.50;99.90;;;;;;5051389;28;20226;-60
2021/12/25 13:49:27;;;;;;;4.80;3.97;;;13.50;99.90;;;;;;5051556;28;20213;-59
2021/12/25 13:51:56;;;;;;;3.90;3.47;;;13.40;99.90;;;;;;5051573;28;20209;-57
2021/12/25 13:54:23;;;;;;;4.57;3.83;;;13.40;99.90;;;;;;5051500;28;20225;-59